Time;durP1;ratioP1;P1;durP2;ratioP2;P2;SDS_P1;SDS_P2;PMS_P1;PMS_P2;Temp;Humidity;BMP_temperature;BMP_pressure;BME280_temperature;BME280_humidity;BME280_pressure;Samples;Min_cycle;Max_cycle;Signal;HPM_P1;HPM_P2
2021/01/10 00:00:58;;;;;;;;;;;;;;;-2.27;100.00;100952.33;1867282;77;20120;-39
2021/01/10 00:03:26;;;;;;;;;;;;;;;-2.25;100.00;100963.55;1867611;77;20458;-38
2021/01/10 00:05:55;;;;;;;;;;;;;;;-2.21;100.00;100961.55;1869801;75;20139;-38
2021/01/10 00:08:23;;;;;;;;;;;;;;;-2.20;100.00;100959.86;1867242;77;20162;-40
2021/01/10 00:10:50;;;;;;;;;;;;;;;-2.19;100.00;100963.78;1877885;75;20164;-39
2021/01/10 00:13:18;;;;;;;;;;;;;;;-2.21;100.00;100960.67;1868201;75;20137;-41
2021/01/10 00:15:46;;;;;;;;;;;;;;;-2.23;100.00;100959.76;1887551;75;20266;-39
2021/01/10 00:18:14;;;;;;;;;;;;;;;-2.27;100.00;100961.31;1869752;75;20166;-40
2021/01/10 00:20:42;;;;;;;;;;;;;;;-2.30;100.00;100964.19;1867472;77;20416;-38
2021/01/10 00:23:10;;;;;;;;;;;;;;;-2.35;100.00;100966.95;1867922;75;20381;-40
2021/01/10 00:25:39;;;;;;;;;;;;;;;-2.38;100.00;100973.27;1867595;77;20237;-39
2021/01/10 00:28:08;;;;;;;;;;;;;;;-2.43;100.00;100967.53;1867323;77;20238;-39
2021/01/10 00:30:36;;;;;;;;;;;;;;;-2.45;100.00;100970.88;1867584;77;20194;-41
2021/01/10 00:33:04;;;;;;;;;;;;;;;-2.47;100.00;100972.08;1867231;77;20281;-40
2021/01/10 00:35:32;;;;;;;;;;;;;;;-2.50;100.00;100967.25;1867404;77;20396;-39
2021/01/10 00:38:00;;;;;;;;;;;;;;;-2.54;100.00;100971.38;1867402;77;20154;-45
2021/01/10 00:40:28;;;;;;;;;;;;;;;-2.54;100.00;100965.36;1867604;77;20294;-39
2021/01/10 00:42:56;;;;;;;;;;;;;;;-2.55;100.00;100963.20;1870276;75;20281;-38
2021/01/10 00:45:24;;;;;;;;;;;;;;;-2.56;100.00;100963.16;1867531;77;20185;-37
2021/01/10 00:47:54;;;;;;;;;;;;;;;-2.56;100.00;100961.88;1867539;77;20478;-37
2021/01/10 00:50:27;;;;;;;;;;;;;;;-2.55;100.00;100966.16;1865874;77;20476;-38
2021/01/10 00:52:55;;;;;;;;;;;;;;;-2.58;100.00;100961.81;1867546;77;20197;-37
2021/01/10 00:55:24;;;;;;;;;;;;;;;-2.58;100.00;100963.50;1867244;77;20182;-40
2021/01/10 00:57:53;;;;;;;;;;;;;;;-2.60;100.00;100962.55;1867369;77;20155;-37
2021/01/10 01:00:23;;;;;;;;;;;;;;;-2.61;100.00;100964.64;1867435;77;20123;-37
2021/01/10 01:02:51;;;;;;;;;;;;;;;-2.63;100.00;100969.73;1867827;75;20254;-40
2021/01/10 01:05:21;;;;;;;;;;;;;;;-2.64;100.00;100971.83;1867125;77;20177;-39
2021/01/10 01:07:49;;;;;;;;;;;;;;;-2.67;100.00;100972.97;1832713;78;20387;-38
2021/01/10 01:10:19;;;;;;;;;;;;;;;-2.68;100.00;100971.63;1832512;77;20141;-37
2021/01/10 01:12:47;;;;;;;;;;;;;;;-2.69;100.00;100968.61;1832540;78;20165;-39
2021/01/10 01:15:15;;;;;;;;;;;;;;;-2.70;100.00;100977.12;1832861;78;20239;-38
2021/01/10 01:17:43;;;;;;;;;;;;;;;-2.72;100.00;100971.04;1832652;78;20160;-38
2021/01/10 01:20:11;;;;;;;;;;;;;;;-2.73;100.00;100982.11;1832774;78;20275;-38
2021/01/10 01:22:40;;;;;;;;;;;;;;;-2.75;100.00;100976.03;1832935;78;20399;-39
2021/01/10 01:25:09;;;;;;;;;;;;;;;-2.73;100.00;100975.70;1832792;78;20231;-41
2021/01/10 01:27:37;;;;;;;;;;;;;;;-2.72;100.00;100973.60;1832957;78;20410;-48
2021/01/10 01:30:06;;;;;;;;;;;;;;;-2.73;100.00;100976.58;1834280;78;20277;-37
2021/01/10 01:32:35;;;;;;;;;;;;;;;-2.72;100.00;100974.89;1859940;77;20168;-37
2021/01/10 01:35:05;;;;;;;;;;;;;;;-2.74;100.00;100974.81;1835339;78;20177;-38
2021/01/10 01:37:36;;;;;;;;;;;;;;;-2.74;100.00;100975.22;1835768;78;20393;-37
2021/01/10 01:40:08;;;;;;;;;;;;;;;-2.76;100.00;100972.62;1835653;78;20269;-37
2021/01/10 01:42:36;;;;;;;;;;;;;;;-2.77;100.00;100975.11;1835644;78;20234;-37
2021/01/10 01:45:06;;;;;;;;;;;;;;;-2.81;100.00;100971.53;1835739;78;20143;-50
2021/01/10 01:47:34;;;;;;;;;;;;;;;-2.83;100.00;100966.77;1835595;78;20554;-39
2021/01/10 01:50:04;;;;;;;;;;;;;;;-2.85;100.00;100970.54;1835688;78;20123;-39
2021/01/10 01:52:32;;;;;;;;;;;;;;;-2.86;100.00;100968.78;1835794;78;20147;-38
2021/01/10 01:55:04;;;;;;;;;;;;;;;-2.88;100.00;100969.52;1835394;78;20150;-38
2021/01/10 01:57:32;;;;;;;;;;;;;;;-2.90;100.00;100974.61;1835996;78;20249;-38
2021/01/10 02:00:00;;;;;;;;;;;;;;;-2.90;100.00;100980.14;1835571;78;20420;-38
2021/01/10 02:02:30;;;;;;;;;;;;;;;-2.92;100.00;100982.64;1835603;78;20163;-39
2021/01/10 02:05:08;;;;;;;;;;;;;;;-2.94;100.00;100989.38;1835664;78;20154;-37
2021/01/10 02:08:00;;;;;;;;;;;;;;;-2.95;100.00;100982.50;1835632;78;20162;-38
2021/01/10 02:10:34;;;;;;;;;;;;;;;-2.98;100.00;100984.08;1835743;78;20380;-37
2021/01/10 02:13:06;;;;;;;;;;;;;;;-3.01;100.00;100984.81;1835767;78;20408;-37
2021/01/10 02:15:34;;;;;;;;;;;;;;;-3.04;100.00;100976.13;1835879;78;20143;-39
2021/01/10 02:18:04;;;;;;;;;;;;;;;-3.04;100.00;100968.03;1835776;78;20396;-38
2021/01/10 02:20:34;;;;;;;;;;;;;;;-3.00;100.00;100964.77;1835572;77;20229;-37
2021/01/10 02:26:50;;;;;;;;;;;;;;;-2.90;100.00;100962.19;1908382;74;20232;-38
2021/01/10 02:29:18;;;;;;;;;;;;;;;-2.93;100.00;100961.64;1859222;76;20141;-39
2021/01/10 02:31:46;;;;;;;;;;;;;;;-2.95;100.00;100965.83;1902236;75;20464;-37
2021/01/10 02:34:14;;;;;;;;;;;;;;;-2.97;100.00;100971.72;1903294;75;20223;-38
2021/01/10 02:36:46;;;;;;;;;;;;;;;-3.02;100.00;100970.23;1903084;75;20226;-37
2021/01/10 02:39:18;;;;;;;;;;;;;;;-3.04;100.00;100972.28;1902930;75;20129;-38
2021/01/10 02:41:52;;;;;;;;;;;;;;;-3.04;100.00;100976.13;1903251;75;20228;-43
2021/01/10 02:44:22;;;;;;;;;;;;;;;-3.06;100.00;100977.73;1892171;75;20194;-39
2021/01/10 02:46:51;;;;;;;;;;;;;;;-3.10;100.00;100975.47;1871822;77;20268;-37
2021/01/10 02:49:19;;;;;;;;;;;;;;;-3.12;100.00;100982.20;1871706;77;20229;-37
2021/01/10 02:51:48;;;;;;;;;;;;;;;-3.12;100.00;100982.20;1872153;77;20135;-45
2021/01/10 02:54:17;;;;;;;;;;;;;;;-3.14;100.00;100982.53;1871815;77;20419;-38
2021/01/10 02:57:04;;;;;;;;;;;;;;;-3.16;100.00;100979.45;1871768;77;20435;-38
2021/01/10 02:59:33;;;;;;;;;;;;;;;-3.22;100.00;100987.77;1871790;77;20244;-38
2021/01/10 03:02:03;;;;;;;;;;;;;;;-3.28;100.00;100992.20;1871893;77;20392;-38
2021/01/10 03:04:31;;;;;;;;;;;;;;;-3.32;100.00;100992.01;1871598;77;20474;-39
2021/01/10 03:06:59;;;;;;;;;;;;;;;-3.35;100.00;100993.17;1871728;77;20395;-38
2021/01/10 03:09:27;;;;;;;;;;;;;;;-3.38;100.00;100991.74;1871771;77;20174;-38
2021/01/10 03:11:55;;;;;;;;;;;;;;;-3.39;100.00;100997.27;1871726;77;20166;-45
2021/01/10 03:14:22;;;;;;;;;;;;;;;-3.38;100.00;100997.75;1871644;77;20150;-39
2021/01/10 03:16:50;;;;;;;;;;;;;;;-3.38;100.00;100999.44;1871828;77;20192;-37
2021/01/10 03:19:18;;;;;;;;;;;;;;;-3.40;100.00;101008.33;1871843;77;20392;-38
2021/01/10 03:21:46;;;;;;;;;;;;;;;-3.39;100.00;101002.39;1871982;77;20400;-39
2021/01/10 03:24:14;;;;;;;;;;;;;;;-3.39;100.00;101005.36;1871690;77;20134;-40
2021/01/10 03:26:44;;;;;;;;;;;;;;;-3.37;100.00;101005.03;1877412;75;20164;-38
2021/01/10 03:29:11;;;;;;;;;;;;;;;-3.35;100.00;101005.55;1903323;75;20136;-38
2021/01/10 03:31:39;;;;;;;;;;;;;;;-3.32;100.00;101006.11;1903412;75;20136;-38
2021/01/10 03:34:07;;;;;;;;;;;;;;;-3.32;100.00;101006.98;1903270;75;20484;-37
2021/01/10 03:36:35;;;;;;;;;;;;;;;-3.32;100.00;100999.30;1902866;75;20206;-38
2021/01/10 03:39:03;;;;;;;;;;;;;;;-3.32;100.00;101002.26;1902568;75;20418;-38
2021/01/10 03:41:30;;;;;;;;;;;;;;;-3.33;100.00;101001.78;1902480;75;20176;-39
2021/01/10 03:44:00;;;;;;;;;;;;;;;-3.34;100.00;100995.78;1902878;75;20155;-38
2021/01/10 03:46:27;;;;;;;;;;;;;;;-3.33;100.00;100997.53;1902508;75;20124;-39
2021/01/10 03:48:55;;;;;;;;;;;;;;;-3.32;100.00;100992.01;1902752;75;20274;-37
2021/01/10 03:51:27;;;;;;;;;;;;;;;-3.30;100.00;100996.80;1902462;75;20398;-39
2021/01/10 03:53:55;;;;;;;;;;;;;;;-3.30;100.00;101005.78;1902020;75;20198;-38
2021/01/10 03:56:23;;;;;;;;;;;;;;;-3.34;100.00;100994.90;1902649;75;20231;-38
2021/01/10 03:58:51;;;;;;;;;;;;;;;-3.36;100.00;101001.27;1902745;75;20440;-38
2021/01/10 04:01:18;;;;;;;;;;;;;;;-3.36;100.00;101002.95;1902653;75;20136;-40
2021/01/10 04:03:47;;;;;;;;;;;;;;;-3.36;100.00;101005.11;1902847;75;20120;-40
2021/01/10 04:06:14;;;;;;;;;;;;;;;-3.38;100.00;100998.16;1902674;75;20155;-54
2021/01/10 04:08:47;;;;;;;;;;;;;;;-3.37;100.00;101001.19;1902738;75;20461;-39
2021/01/10 04:11:15;;;;;;;;;;;;;;;-3.38;100.00;101000.31;1902501;75;20136;-37
2021/01/10 04:13:43;;;;;;;;;;;;;;;-3.38;100.00;101000.31;1902415;75;20148;-39
2021/01/10 04:16:12;;;;;;;;;;;;;;;-3.38;100.00;101004.56;1902737;75;20203;-39
2021/01/10 04:18:40;;;;;;;;;;;;;;;-3.38;100.00;101006.72;1902669;75;20239;-39
2021/01/10 04:21:08;;;;;;;;;;;;;;;-3.40;100.00;101007.05;1902355;75;20425;-39
2021/01/10 04:23:36;;;;;;;;;;;;;;;-3.44;100.00;101016.70;1902386;75;20159;-38
2021/01/10 04:26:04;;;;;;;;;;;;;;;-3.47;100.00;101015.27;1902407;75;20235;-38
2021/01/10 04:28:32;;;;;;;;;;;;;;;-3.51;100.00;101014.67;1902428;75;20234;-38
2021/01/10 04:31:00;;;;;;;;;;;;;;;-3.52;100.00;101019.32;1902594;75;20471;-38
2021/01/10 04:33:28;;;;;;;;;;;;;;;-3.56;100.00;101019.13;1894924;75;20166;-38
2021/01/10 04:35:56;;;;;;;;;;;;;;;-3.59;100.00;101013.85;1867125;77;20297;-39
2021/01/10 04:38:24;;;;;;;;;;;;;;;-3.63;100.00;101020.14;1867244;77;20121;-37
2021/01/10 04:40:53;;;;;;;;;;;;;;;-3.67;100.00;101024.63;1867380;76;20227;-38
2021/01/10 04:43:20;;;;;;;;;;;;;;;-3.70;100.00;101023.22;1879509;75;20318;-39
2021/01/10 04:45:49;;;;;;;;;;;;;;;-3.70;100.00;101020.66;1875514;75;20261;-40
2021/01/10 04:48:16;;;;;;;;;;;;;;;-3.69;100.00;101016.42;1867528;77;20135;-45
2021/01/10 04:50:44;;;;;;;;;;;;;;;-3.67;100.00;101032.31;1866926;77;20262;-39
2021/01/10 04:53:12;;;;;;;;;;;;;;;-3.66;100.00;101026.79;1846316;77;20140;-39
2021/01/10 04:55:41;;;;;;;;;;;;;;;-3.66;100.00;101031.51;1867306;77;20227;-41
2021/01/10 04:58:08;;;;;;;;;;;;;;;-3.67;100.00;101033.59;1875384;75;20143;-40
2021/01/10 05:00:36;;;;;;;;;;;;;;;-3.65;100.00;101037.52;1879951;75;20396;-39
2021/01/10 05:03:08;;;;;;;;;;;;;;;-3.63;100.00;101050.87;1867417;77;20225;-52
2021/01/10 05:05:38;;;;;;;;;;;;;;;-3.63;100.00;101051.28;1866525;75;20194;-42
2021/01/10 05:08:08;;;;;;;;;;;;;;;-3.62;100.00;101056.48;1866631;75;20183;-41
2021/01/10 05:10:37;;;;;;;;;;;;;;;-3.61;100.00;101062.05;1868814;75;20186;-41
2021/01/10 05:13:05;;;;;;;;;;;;;;;-3.56;100.00;101063.56;1867436;77;20172;-41
2021/01/10 05:15:33;;;;;;;;;;;;;;;-3.51;100.00;101075.30;1867368;77;20137;-39
2021/01/10 05:18:01;;;;;;;;;;;;;;;-3.45;100.00;101071.73;1867440;76;20136;-42
2021/01/10 05:20:30;;;;;;;;;;;;;;;-3.38;100.00;101082.73;1867131;76;20471;-42
2021/01/10 05:22:59;;;;;;;;;;;;;;;-3.33;100.00;101082.53;1867518;77;20135;-40
2021/01/10 05:25:27;;;;;;;;;;;;;;;-3.29;100.00;101078.03;1867111;77;20227;-41
2021/01/10 05:27:56;;;;;;;;;;;;;;;-3.24;100.00;101091.52;1867331;76;20191;-42
2021/01/10 05:30:31;;;;;;;;;;;;;;;-3.20;100.00;101092.52;1866800;76;20206;-40
2021/01/10 05:33:03;;;;;;;;;;;;;;;-3.15;100.00;101089.75;1867720;75;20358;-41
2021/01/10 05:35:56;;;;;;;;;;;;;;;-3.12;100.00;101096.31;1867765;75;20232;-41
2021/01/10 05:38:33;;;;;;;;;;;;;;;-3.07;100.00;101096.50;1868481;75;20284;-42
2021/01/10 05:41:06;;;;;;;;;;;;;;;-3.04;100.00;101100.09;1871126;75;20143;-43
2021/01/10 05:43:34;;;;;;;;;;;;;;;-3.02;100.00;101097.17;1866649;75;20182;-43
2021/01/10 05:46:18;;;;;;;;;;;;;;;-2.99;100.00;101101.57;1888725;75;20430;-41
2021/01/10 05:48:46;;;;;;;;;;;;;;;-2.95;100.00;101099.60;1859272;75;20147;-40
2021/01/10 05:51:14;;;;;;;;;;;;;;;-2.95;100.00;101105.61;1901049;75;20140;-41
2021/01/10 05:53:42;;;;;;;;;;;;;;;-2.91;100.00;101115.22;1876737;75;20208;-40
2021/01/10 05:56:09;;;;;;;;;;;;;;;-2.86;100.00;101118.85;1866390;77;20447;-45
2021/01/10 05:58:38;;;;;;;;;;;;;;;-2.84;100.00;101109.55;1867430;77;20266;-41
2021/01/10 06:01:12;;;;;;;;;;;;;;;-2.81;100.00;101119.92;1869260;75;20178;-41
2021/01/10 06:03:40;;;;;;;;;;;;;;;-2.79;100.00;101128.97;1897396;75;20184;-42
2021/01/10 06:06:09;;;;;;;;;;;;;;;-2.75;100.00;101133.82;1899226;75;20203;-43
2021/01/10 06:08:38;;;;;;;;;;;;;;;-2.73;100.00;101125.80;1896472;75;20386;-42
2021/01/10 06:11:20;;;;;;;;;;;;;;;-2.69;100.00;101132.83;1876142;75;20176;-42
2021/01/10 06:13:53;;;;;;;;;;;;;;;-2.62;100.00;101133.13;1867049;77;20128;-41
2021/01/10 06:16:24;;;;;;;;;;;;;;;-2.54;100.00;101141.17;1867134;76;20180;-42
2021/01/10 06:18:54;;;;;;;;;;;;;;;-2.51;100.00;101146.05;1867263;77;20168;-43
2021/01/10 06:21:24;;;;;;;;;;;;;;;-2.48;100.00;101147.44;1867100;77;20180;-41
2021/01/10 06:26:55;;;;;;;;;;;;;;;-2.39;100.00;101149.53;1906673;74;20190;-41
2021/01/10 06:29:23;;;;;;;;;;;;;;;-2.38;100.00;101153.86;1881913;75;20224;-41
2021/01/10 06:31:51;;;;;;;;;;;;;;;-2.32;100.00;101155.80;1869615;75;20444;-41
2021/01/10 06:34:20;;;;;;;;;;;;;;;-2.30;100.00;101153.78;1868609;75;20424;-40
2021/01/10 06:36:47;;;;;;;;;;;;;;;-2.26;100.00;101157.34;1867804;77;20122;-42
2021/01/10 06:39:16;;;;;;;;;;;;;;;-2.26;100.00;101157.34;1869269;75;20155;-41
2021/01/10 06:42:00;;;;;;;;;;;;;;;-2.27;100.00;101152.61;1858578;76;20410;-41
2021/01/10 06:44:28;;;;;;;;;;;;;;;-2.24;100.00;101154.44;1885789;75;20342;-41
2021/01/10 06:46:56;;;;;;;;;;;;;;;-2.23;100.00;101149.78;1835373;77;20419;-44
2021/01/10 06:49:23;;;;;;;;;;;;;;;-2.22;100.00;101154.95;1875721;75;20297;-40
2021/01/10 06:51:54;;;;;;;;;;;;;;;-2.24;100.00;101152.76;1876109;75;20220;-41
2021/01/10 06:54:22;;;;;;;;;;;;;;;-2.25;100.00;101148.42;1880516;75;20153;-43
2021/01/10 06:56:51;;;;;;;;;;;;;;;-2.29;100.00;101154.23;1878688;75;20186;-42
2021/01/10 06:59:26;;;;;;;;;;;;;;;-2.32;100.00;101159.66;1890478;75;20143;-42
2021/01/10 07:01:57;;;;;;;;;;;;;;;-2.33;100.00;101156.20;1883703;75;20386;-42
2021/01/10 07:04:34;;;;;;;;;;;;;;;-2.29;100.00;101159.77;1867899;77;20306;-40
2021/01/10 07:07:02;;;;;;;;;;;;;;;-2.30;100.00;101165.34;1879421;75;20116;-43
2021/01/10 07:09:50;;;;;;;;;;;;;;;-2.30;100.00;101160.20;1902713;75;20163;-47
2021/01/10 07:12:21;;;;;;;;;;;;;;;-2.29;100.00;101162.33;1903001;75;20155;-41
2021/01/10 07:14:49;;;;;;;;;;;;;;;-2.28;100.00;101168.83;1902749;75;20156;-42
2021/01/10 07:17:18;;;;;;;;;;;;;;;-2.26;100.00;101162.08;1902302;75;20124;-43
2021/01/10 07:19:48;;;;;;;;;;;;;;;-2.25;100.00;101168.97;1878988;75;20249;-41
2021/01/10 07:22:25;;;;;;;;;;;;;;;-2.23;100.00;101173.73;1869664;75;20143;-41
2021/01/10 07:24:53;;;;;;;;;;;;;;;-2.19;100.00;101169.63;1882218;75;20400;-45
2021/01/10 07:27:31;;;;;;;;;;;;;;;-2.16;100.00;101173.59;1872040;75;20218;-42
2021/01/10 07:30:20;;;;;;;;;;;;;;;-2.13;100.00;101176.30;1877518;75;20188;-41
2021/01/10 07:32:50;;;;;;;;;;;;;;;-2.10;100.00;101179.02;1855861;75;20258;-44
2021/01/10 07:35:20;;;;;;;;;;;;;;;-2.05;100.00;101174.53;1850165;76;20531;-42
2021/01/10 07:37:48;;;;;;;;;;;;;;;-2.02;100.00;101181.06;1883061;75;20134;-42
2021/01/10 07:40:24;;;;;;;;;;;;;;;-1.97;100.00;101185.13;1883346;75;20486;-43
2021/01/10 07:43:02;;;;;;;;;;;;;;;-1.94;100.00;101181.39;1877459;75;20160;-43
2021/01/10 07:45:39;;;;;;;;;;;;;;;-1.89;100.00;101182.84;1871572;75;20201;-42
2021/01/10 07:48:07;;;;;;;;;;;;;;;-1.87;100.00;101172.23;1872111;75;20289;-43
2021/01/10 07:50:35;;;;;;;;;;;;;;;-1.82;100.00;101176.74;1872574;75;20193;-42
2021/01/10 07:53:03;;;;;;;;;;;;;;;-1.81;100.00;101181.08;1872900;75;20177;-51
2021/01/10 07:55:32;;;;;;;;;;;;;;;-1.76;100.00;101165.42;1866708;76;20173;-41
2021/01/10 07:58:04;;;;;;;;;;;;;;;-1.71;100.00;101165.19;1880780;75;20172;-42
2021/01/10 08:00:34;;;;;;;;;;;;;;;-1.68;100.00;101171.75;1870128;77;20122;-41
2021/01/10 08:03:04;;;;;;;;;;;;;;;-1.57;100.00;101170.00;1870733;77;20122;-43
2021/01/10 08:05:34;;;;;;;;;;;;;;;-1.45;100.00;101170.52;1867205;75;20158;-41
2021/01/10 08:08:14;;;;;;;;;;;;;;;-1.25;100.00;101176.86;1867081;77;20173;-43
2021/01/10 08:10:45;;;;;;;;;;;;;;;-1.11;100.00;101177.80;1867035;77;20161;-41
2021/01/10 08:13:30;;;;;;;;;;;;;;;-1.10;100.00;101174.41;1828737;78;20192;-42
2021/01/10 08:16:07;;;;;;;;;;;;;;;-1.17;100.00;101173.30;1829109;78;20402;-42
2021/01/10 08:18:42;;;;;;;;;;;;;;;-1.13;100.00;101170.45;1829167;78;20205;-41
2021/01/10 08:21:11;;;;;;;;;;;;;;;-1.12;100.00;101165.37;1829239;78;20248;-42
2021/01/10 08:23:39;;;;;;;;;;;;;;;-1.07;100.00;101164.25;1828071;78;20184;-40
2021/01/10 08:26:10;;;;;;;;;;;;;;;-1.10;100.00;101153.42;1808426;78;20168;-41
2021/01/10 08:28:40;;;;;;;;;;;;;;;-1.14;100.00;101143.85;1819178;78;20133;-42
2021/01/10 08:31:11;;;;;;;;;;;;;;;-1.22;100.00;101151.28;1811680;78;20483;-44
2021/01/10 08:33:39;;;;;;;;;;;;;;;-1.28;100.00;101153.62;1802107;78;20433;-42
2021/01/10 08:36:17;;;;;;;;;;;;;;;-1.32;100.00;101149.19;1855926;77;20222;-42
2021/01/10 08:38:56;;;;;;;;;;;;;;;-1.32;100.00;101142.76;1827572;78;20177;-41
2021/01/10 08:41:30;;;;;;;;;;;;;;;-1.27;100.00;101150.23;1825679;77;20200;-43
2021/01/10 08:44:08;;;;;;;;;;;;;;;-1.27;100.00;101149.35;1837280;77;20225;-46
2021/01/10 08:46:38;;;;;;;;;;;;;;;-1.23;100.00;101146.95;1822929;79;20204;-42
2021/01/10 08:49:06;;;;;;;;;;;;;;;-1.26;100.00;101153.28;1820666;78;20185;-42
2021/01/10 08:51:38;;;;;;;;;;;;;;;-1.28;100.00;101155.31;1849692;77;20309;-42
2021/01/10 08:54:14;;;;;;;;;;;;;;;-1.25;100.00;101155.44;1818517;77;20228;-42
2021/01/10 08:56:42;;;;;;;;;;;;;;;-1.18;100.00;101152.25;1801073;80;20133;-41
2021/01/10 08:59:11;;;;;;;;;;;;;;;-1.14;100.00;101160.58;1801072;80;20180;-45
2021/01/10 09:01:40;;;;;;;;;;;;;;;-1.12;100.00;101152.52;1803001;78;20460;-42
2021/01/10 09:04:10;;;;;;;;;;;;;;;-1.13;100.00;101144.73;1804341;78;20473;-42
2021/01/10 09:07:01;;;;;;;;;;;;;;;-1.13;100.00;101145.61;1814763;78;20440;-40
2021/01/10 09:09:54;;;;;;;;;;;;;;;-1.09;100.00;101144.02;1801019;78;20224;-43
2021/01/10 09:12:39;;;;;;;;;;;;;;;-1.09;100.00;101138.87;1750478;82;20253;-42
2021/01/10 09:15:16;;;;;;;;;;;;;;;-1.10;100.00;101138.39;1761495;80;20522;-42
2021/01/10 09:17:57;;;;;;;;;;;;;;;-1.10;100.00;101131.55;1798175;78;20136;-43
2021/01/10 09:20:31;;;;;;;;;;;;;;;-1.09;100.00;101129.86;1804683;78;20493;-42
2021/01/10 09:22:59;;;;;;;;;;;;;;;-1.07;100.00;101129.11;1802674;78;20264;-42
2021/01/10 09:25:29;;;;;;;;;;;;;;;-1.04;100.00;101130.91;1820785;78;20533;-44
2021/01/10 09:28:10;;;;;;;;;;;;;;;-1.01;100.00;101134.89;1789622;78;20391;-42
2021/01/10 09:30:44;;;;;;;;;;;;;;;-1.03;100.00;101124.53;1811147;78;20213;-41
2021/01/10 09:33:12;;;;;;;;;;;;;;;-1.07;100.00;101123.09;1807327;78;20208;-41
2021/01/10 09:35:45;;;;;;;;;;;;;;;-1.12;100.00;101131.94;1821218;78;20154;-42
2021/01/10 09:38:17;;;;;;;;;;;;;;;-1.12;100.00;101123.34;1812227;78;20138;-41
2021/01/10 09:41:09;;;;;;;;;;;;;;;-1.14;100.00;101120.70;1838401;77;20169;-44
2021/01/10 09:43:47;;;;;;;;;;;;;;;-1.16;100.00;101116.30;1838358;77;20267;-44
2021/01/10 09:46:36;;;;;;;;;;;;;;;-1.17;100.00;101124.83;1814791;78;20188;-42
2021/01/10 09:49:08;;;;;;;;;;;;;;;-1.16;100.00;101126.19;1839137;77;20255;-43
2021/01/10 09:51:42;;;;;;;;;;;;;;;-1.11;100.00;101123.77;1838553;77;20286;-42
2021/01/10 09:54:17;;;;;;;;;;;;;;;-1.13;100.00;101125.44;1834239;77;20412;-44
2021/01/10 09:56:50;;;;;;;;;;;;;;;-1.18;100.00;101121.83;1801762;78;20167;-42
2021/01/10 09:59:37;;;;;;;;;;;;;;;-1.22;100.00;101120.41;1836528;77;20196;-44
2021/01/10 10:02:19;;;;;;;;;;;;;;;-1.22;100.00;101126.84;1793523;78;20351;-43
2021/01/10 10:04:48;;;;;;;;;;;;;;;-1.26;100.00;101112.13;1803613;78;20198;-43
2021/01/10 10:07:35;;;;;;;;;;;;;;;-1.25;100.00;101113.84;1807540;78;20376;-43
2021/01/10 10:10:05;;;;;;;;;;;;;;;-1.12;100.00;101104.05;1809568;78;20208;-49
2021/01/10 10:12:32;;;;;;;;;;;;;;;-1.04;100.00;101110.31;1808267;78;20129;-40
2021/01/10 10:15:06;;;;;;;;;;;;;;;-0.99;100.00;101106.24;1840907;77;20186;-43
2021/01/10 10:17:38;;;;;;;;;;;;;;;-0.96;100.00;101098.20;1820223;78;20487;-41
2021/01/10 10:20:08;;;;;;;;;;;;;;;-0.91;100.00;101096.66;1812003;78;20197;-46
2021/01/10 10:22:37;;;;;;;;;;;;;;;-0.81;100.00;101092.73;1819995;78;20328;-41
2021/01/10 10:26:53;;;;;;;;;;;;;;;-0.62;99.73;101091.67;1898982;74;20228;-39
2021/01/10 10:29:21;;;;;;;;;;;;;;;-0.59;99.33;101095.21;1849432;75;20132;-42
2021/01/10 10:31:50;;;;;;;;;;;;;;;-0.54;98.97;101089.83;1873004;75;20324;-42
2021/01/10 10:34:18;;;;;;;;;;;;;;;-0.39;98.92;101080.87;1867853;75;20297;-41
2021/01/10 10:36:46;;;;;;;;;;;;;;;-0.24;98.50;101087.39;1870021;75;20426;-41
2021/01/10 10:39:14;;;;;;;;;;;;;;;-0.08;98.15;101079.77;1868765;75;20161;-42
2021/01/10 10:41:45;;;;;;;;;;;;;;;0.08;97.50;101077.23;1868398;75;20158;-41
2021/01/10 10:44:14;;;;;;;;;;;;;;;0.23;97.13;101072.16;1810001;77;20259;-42
2021/01/10 10:46:44;;;;;;;;;;;;;;;0.52;96.76;101072.17;1786309;78;20484;-41
2021/01/10 10:49:12;;;;;;;;;;;;;;;0.77;95.99;101072.94;1831814;77;20304;-40
2021/01/10 10:51:40;;;;;;;;;;;;;;;0.91;94.96;101064.30;1834073;77;20204;-43
2021/01/10 10:54:11;;;;;;;;;;;;;;;0.96;93.82;101067.87;1834692;77;20284;-43
2021/01/10 10:56:46;;;;;;;;;;;;;;;0.95;92.38;101068.70;1830947;77;20196;-43
2021/01/10 10:59:10;;;;;;;;;;;;;;;0.89;91.10;101075.39;1836644;77;20208;-42
2021/01/10 11:01:42;;;;;;;;;;;;;;;0.88;90.16;101070.64;1835075;77;20436;-41
2021/01/10 11:04:11;;;;;;;;;;;;;;;0.90;89.33;101075.45;1839270;77;20408;-41
2021/01/10 11:06:38;;;;;;;;;;;;;;;0.83;88.48;101079.97;1844553;77;20169;-41
2021/01/10 11:09:08;;;;;;;;;;;;;;;0.82;88.23;101078.63;1845862;77;20225;-42
2021/01/10 11:11:45;;;;;;;;;;;;;;;0.96;88.28;101081.19;1842137;77;20262;-40
2021/01/10 11:14:13;;;;;;;;;;;;;;;1.11;87.77;101085.50;1836144;77;20182;-42
2021/01/10 11:16:46;;;;;;;;;;;;;;;1.12;87.49;101084.22;1843507;77;20283;-41
2021/01/10 11:19:17;;;;;;;;;;;;;;;1.12;86.95;101082.94;1839622;77;20414;-41
2021/01/10 11:21:46;;;;;;;;;;;;;;;1.04;86.67;101093.48;1838907;77;20178;-42
2021/01/10 11:24:15;;;;;;;;;;;;;;;1.00;86.61;101092.92;1835235;77;20169;-42
2021/01/10 11:26:44;;;;;;;;;;;;;;;0.97;86.58;101094.56;1839483;77;20205;-43
2021/01/10 11:29:12;;;;;;;;;;;;;;;0.97;86.58;101091.56;1837164;77;20534;-42
2021/01/10 11:31:40;;;;;;;;;;;;;;;0.99;86.69;101097.63;1838557;77;20139;-40
2021/01/10 11:34:11;;;;;;;;;;;;;;;1.10;86.65;101099.23;1800515;77;20454;-41
2021/01/10 11:36:47;;;;;;;;;;;;;;;1.27;86.47;101103.14;1779043;77;20460;-42
2021/01/10 11:39:24;;;;;;;;;;;;;;;1.36;86.14;101115.44;1833404;77;20193;-42
2021/01/10 11:41:55;;;;;;;;;;;;;;;1.45;85.78;101106.62;1808843;77;20302;-43
2021/01/10 11:44:24;;;;;;;;;;;;;;;1.23;85.30;101110.36;1835746;77;20117;-42
2021/01/10 11:46:53;;;;;;;;;;;;;;;1.04;85.51;101114.56;1838093;77;20204;-42
2021/01/10 11:49:22;;;;;;;;;;;;;;;0.86;86.02;101114.87;1834434;77;20226;-39
2021/01/10 11:51:50;;;;;;;;;;;;;;;0.71;86.68;101123.08;1835490;77;20290;-42
2021/01/10 11:54:18;;;;;;;;;;;;;;;0.62;87.32;101130.53;1833694;77;20184;-41
2021/01/10 11:56:47;;;;;;;;;;;;;;;0.53;87.83;101126.37;1835730;77;20425;-41
2021/01/10 11:59:16;;;;;;;;;;;;;;;0.50;88.31;101130.57;1834019;77;20881;-42
2021/01/10 12:01:46;;;;;;;;;;;;;;;0.50;88.76;101132.73;1844626;77;20192;-48
2021/01/10 12:04:16;;;;;;;;;;;;;;;0.45;89.20;101129.15;1837134;77;20177;-47
2021/01/10 12:06:44;;;;;;;;;;;;;;;0.46;89.65;101130.03;1835612;77;20208;-41
2021/01/10 12:09:13;;;;;;;;;;;;;;;0.50;90.01;101135.73;1834601;77;20117;-46
2021/01/10 12:11:43;;;;;;;;;;;;;;;0.51;90.24;101133.20;1829566;77;20303;-43
2021/01/10 12:14:12;;;;;;;;;;;;;;;0.53;90.49;101137.97;1833597;77;20145;-42
2021/01/10 12:16:40;;;;;;;;;;;;;;;0.50;90.56;101141.77;1836512;77;20199;-41
2021/01/10 12:19:08;;;;;;;;;;;;;;;0.54;90.77;101140.14;1837433;77;20217;-45
2021/01/10 12:21:37;;;;;;;;;;;;;;;0.57;90.85;101141.54;1836949;77;20188;-42
2021/01/10 12:24:12;;;;;;;;;;;;;;;0.59;90.95;101139.89;1778694;77;20259;-42
2021/01/10 12:26:52;;;;;;;;;;;;;;;0.61;90.94;101135.63;1793016;77;20728;-48
2021/01/10 12:29:28;;;;;;;;;;;;;;;0.62;90.90;101129.65;1802770;77;20196;-41
2021/01/10 12:31:58;;;;;;;;;;;;;;;0.54;90.60;101137.15;1839273;77;20204;-42
2021/01/10 12:34:26;;;;;;;;;;;;;;;0.50;90.66;101143.47;1835273;77;20213;-41
2021/01/10 12:36:54;;;;;;;;;;;;;;;0.49;90.63;101140.42;1807913;78;20184;-42
2021/01/10 12:39:22;;;;;;;;;;;;;;;0.47;90.58;101146.81;1808079;78;20239;-42
2021/01/10 12:41:51;;;;;;;;;;;;;;;0.43;90.56;101147.56;1804157;78;20179;-45
2021/01/10 12:44:20;;;;;;;;;;;;;;;0.43;90.65;101150.14;1803559;78;20287;-43
2021/01/10 12:46:48;;;;;;;;;;;;;;;0.40;90.59;101147.03;1808723;78;20278;-42
2021/01/10 12:49:16;;;;;;;;;;;;;;;0.36;90.59;101145.61;1806505;78;20229;-41
2021/01/10 12:51:46;;;;;;;;;;;;;;;0.31;90.64;101145.48;1808071;78;20133;-40
2021/01/10 12:54:15;;;;;;;;;;;;;;;0.25;90.71;101150.44;1813012;78;20179;-42
2021/01/10 12:56:44;;;;;;;;;;;;;;;0.17;90.89;101147.14;1809783;78;20192;-41